sim
Sign-in with your pilot id or email,
or register
Callsign
Passwort

Schedule Details

Flight Number: DLH2300 (2)
Departure: Munich Airport (EDDM) at 05:35
Arrival: Amsterdam Schiphol Airport (EHAM) at 07:10
Route: Lufthansa Passenger Schedule. Enter filed route here before submitting Pirep.

Weather Information
Getting current METAR information for EDDM 231620Z 27003KT 9999 FEW040 18/14 Q1009 NOSIG
Getting current METAR information for EHAM 231625Z 19010KT 9999 FEW028 17/15 Q1000 NOSIG

Schedule Frequency

Route Map